^^
Saratoga-Weather Station Historical Data
Daily Summary for January 1, 2021 Units:  English    Metric   Both
Daily Weekly Monthly Yearly Custom
  High: Low: Average:
Temperature: 73 °F 55.9 °F 63.1 °F
Dew Point: 59.2 °F 52 °F 55.4 °F
Humidity: 93% 58% 77%
Wind Speed: 10.1mph 0mph 1.8mph
Wind Gust: 12mph - -
Wind- - SSE
Pressure: 30.3 in 30.2 in -
Precipitation: 0 in    
Historical Graphs
 
 
Tabular Data for January 1, 2021
Time Temperature Dew Point Pressure Wind Wind Speed Wind Gust Humidity Rainfall Rate (Hourly) solar
00:00 57.7 °F 52.3 °F 30.3 in ESE 0.9 mph 1 mph 82% 0 in 0 W/m2
00:05 57.7 °F 52.3 °F 30.3 in ESE 0.9 mph 1 mph 82% 0 in 0 W/m2
00:10 57.6 °F 52.5 °F 30.3 in Calm   1 mph 83% 0 in 0 W/m2
00:15 57.6 °F 52.5 °F 30.3 in Calm     83% 0 in 0 W/m2
00:21 57.2 °F 52.2 °F 30.3 in ESE 2 mph 2 mph 83% 0 in 0 W/m2
00:26 57 °F 52 °F 30.3 in Calm   1 mph 83% 0 in 0 W/m2
00:31 56.8 °F 52 °F 30.3 in Calm   1 mph 84% 0 in 0 W/m2
00:36 56.8 °F 52.3 °F 30.3 in ESE 0.9 mph 2 mph 85% 0 in 0 W/m2
00:41 56.8 °F 52.3 °F 30.3 in Calm   1 mph 85% 0 in 0 W/m2
00:46 56.8 °F 52.3 °F 30.3 in ESE 0.9 mph 2 mph 85% 0 in 0 W/m2
00:51 56.8 °F 52.3 °F 30.3 in ESE 0.9 mph 2 mph 85% 0 in 0 W/m2
00:56 56.8 °F 52.3 °F 30.3 in Calm   1 mph 85% 0 in 0 W/m2
01:01 56.7 °F 52.5 °F 30.3 in ESE 0.9 mph 2 mph 86% 0 in 0 W/m2
01:06 56.7 °F 52.5 °F 30.3 in Calm   1 mph 86% 0 in 0 W/m2
01:11 56.7 °F 52.5 °F 30.3 in Calm     86% 0 in 0 W/m2
01:16 56.7 °F 52.5 °F 30.3 in Calm     86% 0 in 0 W/m2
01:21 56.7 °F 52.5 °F 30.3 in Calm     86% 0 in 0 W/m2
01:26 56.7 °F 52.5 °F 30.3 in Calm     86% 0 in 0 W/m2
01:31 56.7 °F 52.5 °F 30.3 in ESE 0.9 mph 1 mph 86% 0 in 0 W/m2
01:36 56.5 °F 52.7 °F 30.3 in ESE 2 mph 2 mph 87% 0 in 0 W/m2
01:41 56.7 °F 52.9 °F 30.3 in Calm     87% 0 in 0 W/m2
01:46 56.5 °F 52.7 °F 30.3 in ESE 0.9 mph 1 mph 87% 0 in 0 W/m2
01:51 56.5 °F 52.7 °F 30.3 in ESE 0.9 mph 2 mph 87% 0 in 0 W/m2
01:56 56.5 °F 52.7 °F 30.3 in ESE 0.9 mph 2 mph 87% 0 in 0 W/m2
02:01 56.5 °F 52.7 °F 30.3 in ESE 0.9 mph 2 mph 87% 0 in 0 W/m2
02:06 56.3 °F 52.5 °F 30.3 in SE 0.9 mph 3 mph 87% 0 in 0 W/m2
02:11 56.5 °F 52.7 °F 30.3 in SE 0.9 mph 2 mph 87% 0 in 0 W/m2
02:16 56.3 °F 52.5 °F 30.3 in SE 0.9 mph 3 mph 87% 0 in 0 W/m2
02:21 56.3 °F 52.5 °F 30.3 in Calm   2 mph 87% 0 in 0 W/m2
02:26 56.3 °F 52.5 °F 30.3 in SE 0.9 mph 3 mph 87% 0 in 0 W/m2
02:31 56.1 °F 52.3 °F 30.3 in SE 0.9 mph 1 mph 87% 0 in 0 W/m2
02:36 56.1 °F 52.7 °F 30.3 in SE 0.9 mph 2 mph 88% 0 in 0 W/m2
02:41 56.1 °F 52.7 °F 30.3 in SE 0.9 mph 2 mph 88% 0 in 0 W/m2
02:46 55.9 °F 52.5 °F 30.3 in SE 0.9 mph 1 mph 88% 0 in 0 W/m2
02:51 55.9 °F 52.5 °F 30.3 in Calm   2 mph 88% 0 in 0 W/m2
02:56 55.9 °F 52.5 °F 30.3 in SE 0.9 mph 1 mph 88% 0 in 0 W/m2
03:01 55.9 °F 52.5 °F 30.3 in Calm   1 mph 88% 0 in 0 W/m2
03:06 55.9 °F 52.5 °F 30.3 in Calm   1 mph 88% 0 in 0 W/m2
03:12 55.9 °F 52.7 °F 30.3 in SE 0.9 mph 2 mph 89% 0 in 0 W/m2
03:17 55.9 °F 52.7 °F 30.3 in East 0.9 mph 3 mph 89% 0 in 0 W/m2
03:22 55.9 °F 52.7 °F 30.3 in Calm   2 mph 89% 0 in 0 W/m2
03:27 56.1 °F 52.9 °F 30.3 in Calm   2 mph 89% 0 in 0 W/m2
03:32 56.1 °F 52.9 °F 30.3 in SE 0.9 mph 2 mph 89% 0 in 0 W/m2
03:37 56.1 °F 52.9 °F 30.3 in Calm   2 mph 89% 0 in 0 W/m2
03:42 56.1 °F 52.9 °F 30.3 in East 0.9 mph 2 mph 89% 0 in 0 W/m2
03:47 56.1 °F 53.2 °F 30.3 in SW 2 mph 2 mph 90% 0 in 0 W/m2
03:52 56.3 °F 53.4 °F 30.3 in WNW 0.9 mph 1 mph 90% 0 in 0 W/m2
03:57 56.3 °F 53.4 °F 30.3 in SSW 0.9 mph 4 mph 90% 0 in 0 W/m2
04:02 56.3 °F 53.4 °F 30.3 in South 0.9 mph 2 mph 90% 0 in 0 W/m2
04:07 56.3 °F 53.4 °F 30.3 in Calm   4 mph 90% 0 in 0 W/m2
04:12 56.3 °F 53.4 °F 30.3 in Calm   1 mph 90% 0 in 0 W/m2
04:17 56.3 °F 53.4 °F 30.3 in SW 0.9 mph 3 mph 90% 0 in 0 W/m2
04:22 56.5 °F 54 °F 30.3 in West 2 mph 2 mph 91% 0 in 0 W/m2
04:27 56.5 °F 53.6 °F 30.3 in Calm   3 mph 90% 0 in 0 W/m2
04:32 56.3 °F 53.8 °F 30.3 in ESE 0.9 mph 3 mph 91% 0 in 0 W/m2
04:37 56.5 °F 54 °F 30.3 in North 0.9 mph 2 mph 91% 0 in 0 W/m2
04:42 56.7 °F 54.1 °F 30.3 in ESE 2 mph 3 mph 91% 0 in 0 W/m2
04:47 56.8 °F 54.3 °F 30.3 in WNW 0.9 mph 3 mph 91% 0 in 0 W/m2
04:52 56.8 °F 54.3 °F 30.3 in Calm   1 mph 91% 0 in 0 W/m2
04:57 56.7 °F 53.8 °F 30.3 in West 0.9 mph 2 mph 90% 0 in 0 W/m2
05:02 56.7 °F 54.1 °F 30.3 in East 0.9 mph 2 mph 91% 0 in 0 W/m2
05:07 56.5 °F 54 °F 30.3 in ESE 2 mph 2 mph 91% 0 in 0 W/m2
05:12 56.7 °F 54.1 °F 30.3 in ENE 0.9 mph 3 mph 91% 0 in 0 W/m2
05:17 56.7 °F 54.1 °F 30.3 in NE 0.9 mph 5 mph 91% 0 in 0 W/m2
05:22 56.7 °F 54.1 °F 30.3 in ENE 0.9 mph 4 mph 91% 0 in 0 W/m2
05:27 56.5 °F 54 °F 30.3 in NE 0.9 mph 5 mph 91% 0 in 0 W/m2
05:32 56.7 °F 54.3 °F 30.3 in West 2 mph 3 mph 92% 0 in 0 W/m2
05:37 56.7 °F 54.3 °F 30.3 in Calm   2 mph 92% 0 in 0 W/m2
05:42 56.7 °F 54.3 °F 30.3 in NW 0.9 mph 2 mph 92% 0 in 0 W/m2
05:47 56.7 °F 54.3 °F 30.3 in ENE 4 mph 4 mph 92% 0 in 0 W/m2
05:52 56.5 °F 54.1 °F 30.3 in West 2 mph 5 mph 92% 0 in 0 W/m2
05:57 56.5 °F 54.1 °F 30.3 in East 2 mph 3 mph 92% 0 in 0 W/m2
06:02 56.5 °F 54.1 °F 30.3 in Calm   2 mph 92% 0 in 0 W/m2
06:07 56.5 °F 54.1 °F 30.3 in WNW 0.9 mph 3 mph 92% 0 in 0 W/m2
06:12 56.3 °F 54 °F 30.3 in Calm   2 mph 92% 0 in 0 W/m2
06:17 56.1 °F 53.8 °F 30.3 in SSE 2 mph 5 mph 92% 0 in 0 W/m2
06:22 56.1 °F 53.8 °F 30.3 in Calm   3 mph 92% 0 in 0 W/m2
06:27 56.1 °F 53.8 °F 30.3 in Calm   6 mph 92% 0 in 0 W/m2
06:32 56.1 °F 53.8 °F 30.3 in SE 0.9 mph 1 mph 92% 0 in 0 W/m2
06:37 56.1 °F 53.8 °F 30.3 in East 2 mph 2 mph 92% 0 in 0 W/m2
06:42 56.1 °F 53.8 °F 30.3 in Calm     92% 0 in 0 W/m2
06:47 56.1 °F 53.8 °F 30.3 in Calm   1 mph 92% 0 in 0 W/m2
06:52 56.1 °F 53.8 °F 30.3 in Calm   2 mph 92% 0 in 0 W/m2
06:57 56.1 °F 53.8 °F 30.3 in NNE 0.9 mph 1 mph 92% 0 in 7 W/m2
07:02 56.1 °F 54.1 °F 30.3 in Calm   2 mph 93% 0 in 9 W/m2
07:07 56.1 °F 54.1 °F 30.3 in South 2 mph 4 mph 93% 0 in 16 W/m2
07:12 56.1 °F 54.1 °F 30.3 in East 2 mph 3 mph 93% 0 in 18 W/m2
07:17 56.1 °F 54.1 °F 30.3 in North 0.9 mph 2 mph 93% 0 in 23 W/m2
07:22 56.3 °F 54 °F 30.3 in West 0.9 mph 2 mph 92% 0 in 32 W/m2
07:27 56.5 °F 54.5 °F 30.3 in West 0.9 mph 4 mph 93% 0 in 35 W/m2
07:32 56.5 °F 54.5 °F 30.3 in ENE 2 mph 2 mph 93% 0 in 44 W/m2
07:37 56.7 °F 54.3 °F 30.3 in Calm   3 mph 92% 0 in 44 W/m2
07:42 56.7 °F 54.3 °F 30.3 in Calm   2 mph 92% 0 in 49 W/m2
07:47 56.8 °F 54.5 °F 30.3 in SW 0.9 mph 6 mph 92% 0 in 47 W/m2
07:53 56.8 °F 54.5 °F 30.3 in SW 2 mph 2 mph 92% 0 in 49 W/m2
07:58 56.8 °F 54.5 °F 30.3 in SW 0.9 mph 6 mph 92% 0 in 53 W/m2
08:03 57 °F 54.7 °F 30.3 in ENE 2 mph 4 mph 92% 0 in 53 W/m2
08:08 57.2 °F 54.7 °F 30.3 in West 0.9 mph 3 mph 91% 0 in 54 W/m2
08:13 57.4 °F 54.9 °F 30.3 in NNW 0.9 mph 4 mph 91% 0 in 56 W/m2
08:18 57.6 °F 55 °F 30.3 in NNW 0.9 mph 3 mph 91% 0 in 74 W/m2
08:23 57.6 °F 55 °F 30.3 in West 2.9 mph 4 mph 91% 0 in 118 W/m2
08:28 57.7 °F 55.2 °F 30.3 in North 2.9 mph 3 mph 91% 0 in 137 W/m2
08:33 57.9 °F 55 °F 30.3 in East 2 mph 5 mph 90% 0 in 156 W/m2
08:38 58.3 °F 55.4 °F 30.3 in NW 0.9 mph 3 mph 90% 0 in 160 W/m2
08:43 58.5 °F 55.6 °F 30.3 in ESE 2 mph 7 mph 90% 0 in 181 W/m2
08:48 58.6 °F 55.4 °F 30.3 in NW 0.9 mph 4 mph 89% 0 in 190 W/m2
08:53 58.8 °F 55.6 °F 30.3 in NW 2 mph 4 mph 89% 0 in 207 W/m2
08:58 59.2 °F 55.6 °F 30.3 in West 2 mph 6 mph 88% 0 in 223 W/m2
09:03 59.4 °F 55.8 °F 30.3 in West 2 mph 4 mph 88% 0 in 230 W/m2
09:08 59.5 °F 55.9 °F 30.3 in NW 2.9 mph 3 mph 88% 0 in 209 W/m2
09:13 59.7 °F 56.1 °F 30.3 in NNE 4 mph 5 mph 88% 0 in 83 W/m2
09:18 60.1 °F 56.1 °F 30.3 in SE 2 mph 3 mph 87% 0 in 216 W/m2
09:23 60.4 °F 56.5 °F 30.3 in NW 2 mph 4 mph 87% 0 in 301 W/m2
09:28 60.8 °F 56.7 °F 30.3 in West 2 mph 3 mph 86% 0 in 313 W/m2
09:33 61.2 °F 57 °F 30.3 in NW 2 mph 4 mph 86% 0 in 336 W/m2
09:38 61.3 °F 56.8 °F 30.3 in WNW 0.9 mph 4 mph 85% 0 in 338 W/m2
09:43 61.9 °F 57 °F 30.3 in East 2.9 mph 7 mph 84% 0 in 369 W/m2
09:48 62.4 °F 56.8 °F 30.3 in NE 8.9 mph 9 mph 82% 0 in 378 W/m2
09:53 62.6 °F 57 °F 30.3 in North 6 mph 7 mph 82% 0 in 397 W/m2
09:58 63 °F 56.7 °F 30.3 in NW 4.9 mph 8 mph 80% 0 in 396 W/m2
10:03 63 °F 57 °F 30.3 in NNW 4.9 mph 8 mph 81% 0 in 404 W/m2
10:08 63 °F 56.7 °F 30.3 in North 0.9 mph 4 mph 80% 0 in 176 W/m2
10:13 63 °F 56.7 °F 30.3 in ENE 2 mph 4 mph 80% 0 in 315 W/m2
10:18 63.1 °F 56.8 °F 30.3 in ENE 2.9 mph 9 mph 80% 0 in 452 W/m2
10:23 63.3 °F 57 °F 30.3 in ENE 8.1 mph 8 mph 80% 0 in 482 W/m2
10:28 63.7 °F 57 °F 30.3 in NNE 0.9 mph 9 mph 79% 0 in 515 W/m2
10:33 63.9 °F 57.2 °F 30.3 in SSW 0.9 mph 4 mph 79% 0 in 520 W/m2
10:38 63.7 °F 57 °F 30.3 in West 2 mph 4 mph 79% 0 in 141 W/m2
10:43 63.7 °F 56.7 °F 30.3 in WNW 2 mph 6 mph 78% 0 in 141 W/m2
10:48 63.3 °F 56.7 °F 30.3 in NNE 2 mph 7 mph 79% 0 in 246 W/m2
10:53 63.7 °F 57.4 °F 30.3 in NE 0.9 mph 7 mph 80% 0 in 624 W/m2
10:58 64 °F 57 °F 30.3 in North 0.9 mph 4 mph 78% 0 in 169 W/m2
11:03 64 °F 57 °F 30.3 in NW 2.9 mph 4 mph 78% 0 in 679 W/m2
11:08 64.8 °F 57.7 °F 30.3 in ENE 2 mph 7 mph 78% 0 in 721 W/m2
11:13 65.1 °F 58.1 °F 30.3 in NNW 4 mph 4 mph 78% 0 in 619 W/m2
11:18 65.7 °F 58.3 °F 30.3 in NNW 4.9 mph 8 mph 77% 0 in 768 W/m2
11:23 65.7 °F 57.9 °F 30.3 in WNW 2.9 mph 7 mph 76% 0 in 338 W/m2
11:28 65.7 °F 57.9 °F 30.3 in NW 4.9 mph 10 mph 76% 0 in 295 W/m2
11:33 65.7 °F 57.9 °F 30.3 in NNW 2 mph 4 mph 76% 0 in 784 W/m2
11:38 66.4 °F 58.6 °F 30.3 in East 2.9 mph 8 mph 76% 0 in 752 W/m2
11:43 66.9 °F 57.9 °F 30.3 in East 2 mph 12 mph 73% 0 in 719 W/m2
11:48 67.5 °F 58.5 °F 30.3 in NNE 2 mph 6 mph 73% 0 in 717 W/m2
11:53 67.8 °F 58.5 °F 30.3 in NE 4 mph 12 mph 72% 0 in 719 W/m2
11:58 68.2 °F 58.5 °F 30.3 in SE 2 mph 7 mph 71% 0 in 731 W/m2
12:03 68.4 °F 58.3 °F 30.3 in East 2 mph 5 mph 70% 0 in 663 W/m2
12:08 68.5 °F 58.8 °F 30.3 in ESE 2 mph 5 mph 71% 0 in 717 W/m2
12:13 68.5 °F 58.8 °F 30.3 in NNE 2.9 mph 7 mph 71% 0 in 705 W/m2
12:18 68.7 °F 58.1 °F 30.3 in NNW 2.9 mph 5 mph 69% 0 in 137 W/m2
12:23 68.4 °F 58.6 °F 30.3 in Calm   2 mph 71% 0 in 188 W/m2
12:28 68.4 °F 59 °F 30.3 in NNE 2 mph 4 mph 72% 0 in 758 W/m2
12:33 68.7 °F 59 °F 30.3 in West 2 mph 3 mph 71% 0 in 255 W/m2
12:38 68.7 °F 58.5 °F 30.3 in ESE 6 mph 8 mph 70% 0 in 392 W/m2
12:43 68.7 °F 58.1 °F 30.3 in SE 4 mph 6 mph 69% 0 in 881 W/m2
12:48 69.1 °F 58.5 °F 30.3 in NNE 4.9 mph 5 mph 69% 0 in 846 W/m2
12:53 69.4 °F 58.5 °F 30.3 in NE 6 mph 8 mph 68% 0 in 846 W/m2
12:58 69.6 °F 59 °F 30.3 in NNE 2 mph 8 mph 69% 0 in 870 W/m2
13:03 70.2 °F 59.2 °F 30.3 in NE 4 mph 5 mph 68% 0 in 879 W/m2
13:08 70.5 °F 58.6 °F 30.3 in ESE 4 mph 4 mph 66% 0 in 840 W/m2
13:13 70.9 °F 58.5 °F 30.3 in NW 2 mph 8 mph 65% 0 in 842 W/m2
13:18 70.9 °F 59 °F 30.3 in NE 2.9 mph 7 mph 66% 0 in 265 W/m2
13:23 70.3 °F 58.1 °F 30.3 in East 4 mph 9 mph 65% 0 in 246 W/m2
13:28 70.2 °F 58.6 °F 30.3 in North 0.9 mph 6 mph 67% 0 in 833 W/m2
13:33 70.5 °F 58.1 °F 30.3 in NNW 2 mph 5 mph 65% 0 in 142 W/m2
13:38 70.5 °F 58.6 °F 30.3 in ENE 2 mph 6 mph 66% 0 in 172 W/m2
13:43 70.3 °F 58.1 °F 30.3 in WNW 4.9 mph 6 mph 65% 0 in 251 W/m2
13:48 70.2 °F 58.3 °F 30.3 in ESE 6 mph 9 mph 66% 0 in 359 W/m2
13:53 70.5 °F 58.1 °F 30.3 in East 6.9 mph 9 mph 65% 0 in 853 W/m2
13:58 71.1 °F 58.6 °F 30.3 in ENE 2.9 mph 6 mph 65% 0 in 884 W/m2
14:03 71.4 °F 58.6 °F 30.3 in NNE 8 mph 8 mph 64% 0 in 930 W/m2
14:08 71.4 °F 57.7 °F 30.3 in North 0.9 mph 5 mph 62% 0 in 197 W/m2
14:13 71.1 °F 57.7 °F 30.3 in ESE 4.9 mph 5 mph 63% 0 in 255 W/m2
14:18 70.7 °F 57 °F 30.3 in SE 4.9 mph 7 mph 62% 0 in 206 W/m2
14:23 70.5 °F 57.4 °F 30.3 in SE 0.9 mph 4 mph 63% 0 in 297 W/m2
14:28 71.1 °F 57.7 °F 30.3 in NE 2.9 mph 8 mph 63% 0 in 227 W/m2
14:33 71.1 °F 57.7 °F 30.3 in ENE 4.9 mph 6 mph 63% 0 in 230 W/m2
14:38 70.9 °F 57.7 °F 30.3 in NE 4 mph 10 mph 63% 0 in 244 W/m2
14:43 70.9 °F 57.7 °F 30.3 in NE 4.9 mph 7 mph 63% 0 in 793 W/m2
14:48 71.1 °F 57.7 °F 30.3 in NNE 2 mph 9 mph 63% 0 in 835 W/m2
14:53 71.6 °F 57.9 °F 30.3 in ENE 2.9 mph 7 mph 62% 0 in 216 W/m2
14:58 71.4 °F 57.2 °F 30.3 in ENE 2 mph 7 mph 61% 0 in 232 W/m2
15:03 71.8 °F 58.1 °F 30.3 in ESE 0.9 mph 6 mph 62% 0 in 872 W/m2
15:08 72.1 °F 57.9 °F 30.3 in ENE 2 mph 10 mph 61% 0 in 176 W/m2
15:13 71.6 °F 57.9 °F 30.3 in NE 4.9 mph 8 mph 62% 0 in 174 W/m2
15:18 71.4 °F 57.7 °F 30.3 in NNW 0.9 mph 9 mph 62% 0 in 267 W/m2
15:23 71.4 °F 58.1 °F 30.3 in SE 2 mph 3 mph 63% 0 in 547 W/m2
15:28 71.8 °F 58.5 °F 30.3 in NE 4 mph 4 mph 63% 0 in 715 W/m2
15:33 72.1 °F 57.6 °F 30.3 in East 2.9 mph 9 mph 60% 0 in 707 W/m2
15:38 72.1 °F 57.9 °F 30.3 in East 2.9 mph 3 mph 61% 0 in 821 W/m2
15:43 72.7 °F 57.9 °F 30.3 in East 4 mph 9 mph 60% 0 in 214 W/m2
15:48 72.3 °F 57.7 °F 30.3 in NE 2.9 mph 11 mph 60% 0 in 162 W/m2
15:53 71.8 °F 57.6 °F 30.3 in ENE 2.9 mph 8 mph 61% 0 in 290 W/m2
15:58 71.6 °F 57.4 °F 30.3 in Calm   11 mph 61% 0 in 684 W/m2
16:03 72.3 °F 58.1 °F 30.3 in NE 4 mph 4 mph 61% 0 in 696 W/m2
16:08 72.9 °F 57.2 °F 30.3 in ENE 2 mph 7 mph 58% 0 in 396 W/m2
16:13 72.7 °F 57.9 °F 30.2 in East 2.9 mph 9 mph 60% 0 in 661 W/m2
16:18 72.7 °F 58.5 °F 30.2 in ENE 2 mph 7 mph 61% 0 in 186 W/m2
16:23 72.7 °F 57 °F 30.2 in ENE 2 mph 4 mph 58% 0 in 211 W/m2
16:28 72.5 °F 57.4 °F 30.2 in East 2 mph 3 mph 59% 0 in 731 W/m2
16:34 72.9 °F 57.7 °F 30.2 in NE 4 mph 9 mph 59% 0 in 183 W/m2
16:39 72.1 °F 57 °F 30.2 in ESE 2 mph 7 mph 59% 0 in 118 W/m2
16:44 71.8 °F 57.6 °F 30.2 in WSW 0.9 mph 9 mph 61% 0 in 561 W/m2
16:49 71.8 °F 57.2 °F 30.2 in ENE 2.9 mph 7 mph 60% 0 in 557 W/m2
16:54 72.1 °F 56.5 °F 30.2 in North 0.9 mph 7 mph 58% 0 in 615 W/m2
16:59 72.7 °F 57 °F 30.2 in NNE 0.9 mph 7 mph 58% 0 in 643 W/m2
17:04 72.9 °F 57.2 °F 30.2 in ENE 2.9 mph 7 mph 58% 0 in 241 W/m2
17:09 72.7 °F 57 °F 30.2 in SE 2 mph 3 mph 58% 0 in 209 W/m2
17:14 72.5 °F 57.4 °F 30.2 in East 10.1 mph 10 mph 59% 0 in 169 W/m2
17:19 72 °F 57.4 °F 30.2 in NW 8.1 mph 8 mph 60% 0 in 123 W/m2
17:24 71.8 °F 57.2 °F 30.2 in NE 2.9 mph 4 mph 60% 0 in 279 W/m2
17:29 71.8 °F 57.2 °F 30.2 in ESE 2.9 mph 6 mph 60% 0 in 445 W/m2
17:34 72 °F 56.8 °F 30.2 in ENE 0.9 mph 3 mph 59% 0 in 410 W/m2
17:39 72.5 °F 56.8 °F 30.2 in NW 2 mph 8 mph 58% 0 in 406 W/m2
17:44 72.9 °F 57.2 °F 30.2 in Calm   4 mph 58% 0 in 404 W/m2
17:49 73 °F 57.4 °F 30.2 in West 2 mph 11 mph 58% 0 in 376 W/m2
17:54 73 °F 57.9 °F 30.2 in East 2.9 mph 4 mph 59% 0 in 429 W/m2
17:59 73 °F 57.9 °F 30.2 in NE 6 mph 11 mph 59% 0 in 424 W/m2
18:04 73 °F 57.4 °F 30.2 in NNE 2.9 mph 6 mph 58% 0 in 374 W/m2
18:09 73 °F 57.4 °F 30.2 in North 4 mph 10 mph 58% 0 in 302 W/m2
18:14 72.7 °F 57.6 °F 30.2 in West 2 mph 4 mph 59% 0 in 299 W/m2
18:19 72.7 °F 57.6 °F 30.2 in NE 2.9 mph 4 mph 59% 0 in 281 W/m2
18:24 72.1 °F 57.6 °F 30.2 in NNW 4 mph 6 mph 60% 0 in 269 W/m2
18:29 72 °F 57.4 °F 30.2 in SSW 0.9 mph 8 mph 60% 0 in 262 W/m2
18:34 71.8 °F 57.2 °F 30.2 in NE 2.9 mph 7 mph 60% 0 in 253 W/m2
18:39 71.6 °F 57 °F 30.2 in NE 2 mph 4 mph 60% 0 in 232 W/m2
18:44 71.4 °F 57.2 °F 30.2 in North 4 mph 6 mph 61% 0 in 213 W/m2
18:49 71.4 °F 57.2 °F 30.2 in Calm   8 mph 61% 0 in 195 W/m2
18:54 71.4 °F 57.2 °F 30.2 in Calm   5 mph 61% 0 in 178 W/m2
18:59 71.2 °F 57 °F 30.2 in East 2 mph 8 mph 61% 0 in 167 W/m2
19:04 71.1 °F 56.8 °F 30.2 in East 0.9 mph 3 mph 61% 0 in 149 W/m2
19:09 70.7 °F 57 °F 30.2 in NE 2 mph 7 mph 62% 0 in 137 W/m2
19:14 70.3 °F 57.2 °F 30.2 in East 0.9 mph 3 mph 63% 0 in 121 W/m2
19:19 70.2 °F 56.5 °F 30.2 in NNW 0.9 mph 4 mph 62% 0 in 105 W/m2
19:24 70 °F 56.8 °F 30.2 in NE 0.9 mph 5 mph 63% 0 in 93 W/m2
19:29 69.6 °F 56.8 °F 30.2 in ENE 2.9 mph 3 mph 64% 0 in 81 W/m2
19:34 69.4 °F 56.7 °F 30.2 in NNW 2 mph 5 mph 64% 0 in 53 W/m2
19:39 69.3 °F 56.5 °F 30.2 in ESE 0.9 mph 2 mph 64% 0 in 28 W/m2
19:44 68.9 °F 56.7 °F 30.2 in NW 0.9 mph 3 mph 65% 0 in 25 W/m2
19:49 68.5 °F 56.3 °F 30.2 in North 2.9 mph 3 mph 65% 0 in 21 W/m2
19:54 68 °F 56.3 °F 30.2 in North 0.9 mph 5 mph 66% 0 in 18 W/m2
19:59 67.6 °F 56.3 °F 30.2 in SW 0.9 mph 3 mph 67% 0 in 16 W/m2
20:04 67.3 °F 55.9 °F 30.2 in NNE 0.9 mph 5 mph 67% 0 in 12 W/m2
20:09 66.9 °F 55.9 °F 30.2 in West 2 mph 5 mph 68% 0 in 11 W/m2
20:14 66.6 °F 55.6 °F 30.2 in NW 2 mph 4 mph 68% 0 in 7 W/m2
20:19 66.4 °F 55.6 °F 30.2 in NE 0.9 mph 4 mph 68% 0 in 5 W/m2
20:24 66 °F 55.6 °F 30.2 in ENE 2 mph 2 mph 69% 0 in 0 W/m2
20:29 65.8 °F 55.4 °F 30.2 in NW 0.9 mph 2 mph 69% 0 in 0 W/m2
20:34 65.5 °F 55.4 °F 30.2 in Calm   3 mph 70% 0 in 0 W/m2
20:39 65.1 °F 55 °F 30.2 in Calm   3 mph 70% 0 in 0 W/m2
20:44 64.9 °F 54.9 °F 30.2 in ESE 2 mph 2 mph 70% 0 in 0 W/m2
20:49 64.8 °F 55.2 °F 30.2 in ENE 2 mph 2 mph 71% 0 in 0 W/m2
20:54 64.4 °F 54.9 °F 30.2 in ENE 0.9 mph 2 mph 71% 0 in 0 W/m2
20:59 64.2 °F 54.7 °F 30.2 in South 2 mph 8 mph 71% 0 in 0 W/m2
21:04 64 °F 54.5 °F 30.2 in NW 8.1 mph 8 mph 71% 0 in 0 W/m2
21:09 63.9 °F 54.3 °F 30.2 in NNW 2 mph 6 mph 71% 0 in 0 W/m2
21:14 63.9 °F 54.7 °F 30.3 in Calm   3 mph 72% 0 in 0 W/m2
21:19 63.7 °F 54.5 °F 30.3 in NNW 2.9 mph 4 mph 72% 0 in 0 W/m2
21:24 63.5 °F 54.3 °F 30.3 in NW 0.9 mph 3 mph 72% 0 in 0 W/m2
21:29 63.3 °F 54.5 °F 30.3 in NW 2 mph 3 mph 73% 0 in 0 W/m2
21:34 63 °F 54.1 °F 30.3 in SE 0.9 mph 5 mph 73% 0 in 0 W/m2
21:39 62.8 °F 54 °F 30.3 in SSE 0.9 mph 4 mph 73% 0 in 0 W/m2
21:44 62.6 °F 54.1 °F 30.3 in NE 0.9 mph 1 mph 74% 0 in 0 W/m2
21:49 62.4 °F 54 °F 30.3 in NW 0.9 mph 3 mph 74% 0 in 0 W/m2
21:54 62.2 °F 54.1 °F 30.3 in NE 2 mph 6 mph 75% 0 in 0 W/m2
21:59 62.1 °F 54 °F 30.3 in NE 0.9 mph 8 mph 75% 0 in 0 W/m2
22:04 62.1 °F 54 °F 30.3 in NW 2.9 mph 4 mph 75% 0 in 0 W/m2
22:09 61.9 °F 53.8 °F 30.3 in ESE 2 mph 8 mph 75% 0 in 0 W/m2
22:14 61.5 °F 54 °F 30.3 in NNW 2 mph 4 mph 76% 0 in 0 W/m2
22:19 61.3 °F 54.1 °F 30.3 in ENE 0.9 mph 1 mph 77% 0 in 0 W/m2
22:24 61.2 °F 54 °F 30.3 in NW 2 mph 4 mph 77% 0 in 0 W/m2
22:29 61 °F 54.1 °F 30.3 in Calm   2 mph 78% 0 in 0 W/m2
22:34 60.6 °F 53.8 °F 30.3 in North 0.9 mph 3 mph 78% 0 in 0 W/m2
22:39 60.6 °F 53.8 °F 30.3 in Calm   4 mph 78% 0 in 0 W/m2
22:44 60.4 °F 53.6 °F 30.3 in NNW 0.9 mph 5 mph 78% 0 in 0 W/m2
22:49 60.3 °F 53.4 °F 30.3 in Calm   2 mph 78% 0 in 0 W/m2
22:54 60.3 °F 53.4 °F 30.3 in ENE 2 mph 2 mph 78% 0 in 0 W/m2
22:59 60.1 °F 53.6 °F 30.3 in WNW 0.9 mph 2 mph 79% 0 in 0 W/m2
23:04 59.7 °F 53.2 °F 30.3 in Calm   4 mph 79% 0 in 0 W/m2
23:09 59.5 °F 53.4 °F 30.3 in WNW 0.9 mph 1 mph 80% 0 in 0 W/m2
23:14 59.4 °F 53.2 °F 30.3 in Calm   4 mph 80% 0 in 0 W/m2
23:19 59.2 °F 53.1 °F 30.3 in NNE 0.9 mph 2 mph 80% 0 in 0 W/m2
23:24 59 °F 53.2 °F 30.3 in WNW 0.9 mph 2 mph 81% 0 in 0 W/m2
23:29 58.6 °F 52.9 °F 30.3 in Calm   2 mph 81% 0 in 0 W/m2
23:34 58.5 °F 53.1 °F 30.3 in WNW 0.9 mph 1 mph 82% 0 in 0 W/m2
23:39 58.3 °F 52.9 °F 30.3 in WNW 0.9 mph 2 mph 82% 0 in 0 W/m2
23:44 57.9 °F 52.5 °F 30.3 in NNW 0.9 mph 1 mph 82% 0 in 0 W/m2
23:49 57.9 °F 52.5 °F 30.3 in Calm   1 mph 82% 0 in 0 W/m2
23:54 57.9 °F 52.5 °F 30.3 in NW 0.9 mph 1 mph 82% 0 in 0 W/m2
23:59 57.9 °F 52.7 °F 30.3 in NW 0.9 mph 2 mph 83% 0 in 0 W/m2
Juneau County Weather
Compliments of Weather Underground - 4 mb